EGGDGVAC

Guest
Details From EGGD - Bristol International
To GVAC - Sal Amilcar Cabral Intl
Flight Number -
Tags decoded
Created
Modified
Stats Distance 2,298 nm / 4,256 km
Max Altitude 0 ft / 0 m
Waypoints 3
Social Downloads 0
Likes 0
Share VATSIM

Download

Looking for another format? Having issues loading an existing format? Contact us
Advertisement - Login to hide

Notes

Requested: EGGD EXMOR GVAC

Route

EGGD EXMOR GVAC

ID Type Via Altitude Latitude Longitude Leg Dist Tot Dist Heading (true) Name
O EGGD APT - 0 ft / 0 m 51.38266˚ -2.71892˚ - 0 nm - Bristol International
EXMOR FIX - 0 ft / 0 m 51.17861˚ -3.35972˚ 27 nm 27 nm 243° / 243° -
O GVAC APT - 0 ft / 0 m 16.73821˚ -22.95050˚ 2271 nm 2298 nm 212° / 200° Sal Amilcar Cabral Intl

Altitude Profile

Advertisement - Login to hide

Weather


0- 5 10 15 20 25 30 35+ Temperature / ° C

Clouds and Precipitation
Forecast for 2017-12-17 18:00 UTC. Updated an hour ago

Ground ~20,000 ft ~40,000 ft Winds

EGGD

Details ICAO EGGD (BRS)
Name Bristol International
Region United Kingdom
Timezone Europe/London (UTC+0.0)
Stats Elevation 622 ft / 190 m (AMSL)
Location 51.382658° -2.718918°
Runways 1
Magnetic Variation 1.349° W

METAR

EGGD 171750Z 26019KT 6000 -DZ BKN002 09/09 Q1020

Decode

TAF

TAF EGGD 171704Z 1718/1818 24012KT 5000 -RA BR SCT001 BKN005 TEMPO 1718/1720 0300 FG OVC001 BECMG 1720/1723 32010KT 9999 NSW SCT020 BECMG 1800/1803 VRB03KT PROB40 1816/1818 7000

Decode

Departure Runways

ID Width Length Bearing (true) Bearing (mag) Surface Threshold Offset Overrun Length
09 148 ft / 45 m 6,655 ft / 2,029 m 86.42° 87.77° Asphalt 0 ft / 0 m 0 ft / 0 m
27 148 ft / 45 m 6,655 ft / 2,029 m 266.44° 267.79° Asphalt 499 ft / 152 m 0 ft / 0 m

GVAC

Details ICAO GVAC (SID)
Name Sal Amilcar Cabral Intl
Region Cape Verde
Timezone Atlantic/Cape_Verde (UTC-1.0)
Stats Elevation 177 ft / 54 m (AMSL)
Location 16.738208° -22.950500°
Runways 2
Magnetic Variation 9.240° W

METAR

GVAC 171800Z 07015KT 9999 FEW014 OVC100 24/16 Q1015 NOSIG

Decode

TAF

TAF GVAC 171700Z 1718/1824 07018KT 9999 BKN014 PROB30 TEMPO 1802/1808 8000 BECMG 1810/1812 06018G28KT

Decode

Destination Runways

ID Width Length Bearing (true) Bearing (mag) Surface Threshold Offset Overrun Length
01 148 ft / 45 m 10,826 ft / 3,300 m 359.69° 8.93° Asphalt 885 ft / 270 m 0 ft / 0 m
07 148 ft / 45 m 4,892 ft / 1,491 m 57.69° 66.93° Asphalt 200 ft / 61 m 0 ft / 0 m
19 148 ft / 45 m 10,826 ft / 3,300 m 179.69° 188.93° Asphalt 800 ft / 244 m 0 ft / 0 m
25 148 ft / 45 m 4,892 ft / 1,491 m 237.69° 246.93° Asphalt 200 ft / 61 m 0 ft / 0 m

Approach Navaids

Runway Type Ident Frequency Range Bearing (true) Bearing (mag) Slope Elevation
01 Localiser SL 109.90 MHz 18 nm / 33 km 359.58° 8.82° - 177 ft / 54 m (AMSL)
01 Glidescope SL 109.90 MHz 10 nm / 19 km 359.69° 8.93° 3.00° 177 ft / 54 m (AMSL)

Popular Alternatives